createdAt,value
2022-08-22T00:01:28.389Z,20.33
2022-08-22T00:02:42.775Z,22.72
2022-08-22T00:02:52.599Z,23.65
2022-08-22T00:02:59.810Z,22.51
2022-08-22T00:03:00.025Z,21.43
2022-08-22T00:04:07.474Z,20.29
2022-08-22T00:06:44.866Z,20.25
2022-08-22T00:09:29.040Z,20.22
2022-08-22T00:12:06.423Z,20.21
2022-08-22T00:14:40.281Z,20.18
2022-08-22T00:17:20.413Z,20.16
2022-08-22T00:19:54.993Z,20.13
2022-08-22T00:22:28.587Z,20.10
2022-08-22T00:25:02.062Z,20.07
2022-08-22T00:27:44.869Z,20.00
2022-08-22T00:30:15.751Z,19.94
2022-08-22T00:32:50.355Z,19.89
2022-08-22T00:35:23.859Z,19.87
2022-08-22T00:38:02.223Z,19.84
2022-08-22T00:40:42.886Z,19.82
2022-08-22T00:43:52.934Z,19.82
2022-08-22T00:46:33.866Z,19.81
2022-08-22T00:49:13.673Z,19.80
2022-08-22T00:52:19.185Z,19.78
2022-08-22T00:55:10.908Z,19.74
2022-08-22T00:57:51.711Z,19.71
2022-08-22T01:00:22.735Z,19.69
2022-08-22T01:03:28.199Z,19.65
2022-08-22T01:06:09.619Z,19.60
2022-08-22T01:09:01.667Z,19.56
2022-08-22T01:11:45.457Z,19.52
2022-08-22T01:14:34.800Z,19.51
2022-08-22T01:17:31.433Z,19.52
2022-08-22T01:20:37.593Z,19.50
2022-08-22T01:23:34.689Z,19.47
2022-08-22T01:26:27.680Z,19.46
2022-08-22T01:29:36.071Z,19.46
2022-08-22T01:32:40.770Z,19.46
2022-08-22T01:35:30.554Z,19.46
2022-08-22T01:38:35.897Z,19.44
2022-08-22T01:41:22.173Z,19.40
2022-08-22T01:44:03.201Z,19.34
2022-08-22T01:46:39.224Z,19.30
2022-08-22T01:49:15.309Z,19.26
2022-08-22T01:51:48.148Z,19.23
2022-08-22T01:54:26.898Z,19.20
2022-08-22T01:57:01.070Z,19.17
2022-08-22T01:59:34.616Z,19.14
2022-08-22T02:02:45.689Z,19.11
2022-08-22T02:05:25.828Z,19.03
2022-08-22T02:08:00.066Z,18.96
2022-08-22T02:10:45.383Z,18.92
2022-08-22T02:13:27.450Z,18.86
2022-08-22T02:16:09.353Z,18.81
2022-08-22T02:18:55.040Z,18.76
2022-08-22T02:21:31.893Z,18.73
2022-08-22T02:24:04.014Z,18.73
2022-08-22T02:26:50.038Z,18.73
2022-08-22T02:29:34.296Z,18.70
2022-08-22T02:32:10.584Z,18.70
2022-08-22T02:34:56.239Z,18.72
2022-08-22T02:37:41.246Z,18.74
2022-08-22T02:40:20.697Z,18.75
2022-08-22T02:43:00.497Z,18.76
2022-08-22T02:45:39.628Z,18.78
2022-08-22T02:48:17.168Z,18.79
2022-08-22T02:50:51.556Z,18.81
2022-08-22T02:53:23.666Z,18.83
2022-08-22T02:55:58.930Z,18.84
2022-08-22T02:58:37.954Z,18.85
2022-08-22T03:01:23.823Z,18.88
2022-08-22T03:04:13.591Z,18.90
2022-08-22T03:06:45.760Z,18.92
2022-08-22T03:09:27.578Z,18.92
2022-08-22T03:12:06.557Z,18.92
2022-08-22T03:14:43.148Z,18.93
2022-08-22T03:17:19.216Z,18.93
2022-08-22T03:19:55.301Z,18.94
2022-08-22T03:22:29.414Z,18.97
2022-08-22T03:25:06.881Z,18.98
2022-08-22T03:27:39.658Z,18.99
2022-08-22T03:30:13.561Z,18.99
2022-08-22T03:32:51.777Z,19.00
2022-08-22T03:35:32.560Z,19.00
2022-08-22T03:38:14.515Z,18.99
2022-08-22T03:40:57.131Z,18.98
2022-08-22T03:44:00.543Z,18.97
2022-08-22T03:46:48.523Z,18.96
2022-08-22T03:49:36.549Z,18.95
2022-08-22T03:52:29.581Z,18.93
2022-08-22T03:55:21.248Z,18.92
2022-08-22T03:58:03.444Z,18.93
2022-08-22T04:01:05.739Z,18.95
2022-08-22T04:03:57.237Z,18.97
2022-08-22T04:06:56.312Z,18.99
2022-08-22T04:09:57.938Z,18.98
2022-08-22T04:13:14.293Z,18.97
2022-08-22T04:16:15.352Z,18.93
2022-08-22T04:19:12.446Z,18.93
2022-08-22T04:22:07.613Z,18.93
2022-08-22T04:24:48.372Z,18.94
2022-08-22T04:27:26.362Z,18.93
2022-08-22T04:29:56.102Z,18.93
2022-08-22T04:32:30.596Z,18.94
2022-08-22T04:35:04.221Z,18.95
2022-08-22T04:37:37.718Z,18.96
2022-08-22T04:40:12.250Z,18.98
2022-08-22T04:42:43.780Z,18.96
2022-08-22T04:45:16.222Z,18.95
2022-08-22T04:47:54.289Z,18.94
2022-08-22T04:50:26.495Z,18.96
2022-08-22T04:53:05.203Z,18.99
2022-08-22T04:55:45.653Z,19.05
2022-08-22T04:58:25.080Z,19.12
2022-08-22T05:00:59.470Z,19.17
2022-08-22T05:03:29.803Z,19.22
2022-08-22T05:06:01.664Z,19.25
2022-08-22T05:08:32.937Z,19.32
2022-08-22T05:11:02.986Z,19.38
2022-08-22T05:13:32.934Z,19.45
2022-08-22T05:16:05.083Z,19.53
2022-08-22T05:18:36.866Z,19.62
2022-08-22T05:21:07.814Z,19.70
2022-08-22T05:23:39.564Z,19.78
2022-08-22T05:26:08.902Z,19.85
2022-08-22T05:28:40.391Z,19.90
2022-08-22T05:31:12.363Z,19.98
2022-08-22T05:33:43.739Z,20.06
2022-08-22T05:36:15.507Z,20.14
2022-08-22T05:38:47.236Z,20.22
2022-08-22T05:41:21.394Z,20.30
2022-08-22T05:43:51.114Z,20.36
2022-08-22T05:46:27.104Z,20.42
2022-08-22T05:48:59.329Z,20.47
2022-08-22T05:51:40.338Z,20.53
2022-08-22T05:54:12.626Z,20.60
2022-08-22T05:56:45.916Z,20.66
2022-08-22T05:59:17.759Z,20.77
2022-08-22T06:01:54.079Z,20.85
2022-08-22T06:04:27.442Z,20.93
2022-08-22T06:06:59.117Z,20.98
2022-08-22T06:09:35.354Z,21.05
2022-08-22T06:12:18.127Z,21.11
2022-08-22T06:14:59.241Z,21.17
2022-08-22T06:17:33.225Z,21.22
2022-08-22T06:20:02.507Z,21.30
2022-08-22T06:22:36.770Z,21.35
2022-08-22T06:25:10.017Z,21.40
2022-08-22T06:27:39.619Z,21.46
2022-08-22T06:30:12.299Z,21.54
2022-08-22T06:32:59.790Z,21.61
2022-08-22T06:35:52.654Z,21.68
2022-08-22T06:38:22.430Z,21.75
2022-08-22T06:40:53.691Z,21.82
2022-08-22T06:43:23.851Z,21.90
2022-08-22T06:45:52.911Z,21.99
2022-08-22T06:48:23.385Z,22.10
2022-08-22T06:50:56.585Z,22.20
2022-08-22T06:53:28.413Z,22.27
2022-08-22T06:56:02.460Z,22.34
2022-08-22T06:58:34.483Z,22.41
2022-08-22T07:01:11.646Z,22.45
2022-08-22T07:03:45.710Z,22.49
2022-08-22T07:06:17.349Z,22.51
2022-08-22T07:08:46.937Z,22.54
2022-08-22T07:11:21.567Z,22.58
2022-08-22T07:13:56.675Z,22.65
2022-08-22T07:16:31.178Z,22.74
2022-08-22T07:18:59.976Z,22.82
2022-08-22T07:21:31.114Z,22.92
2022-08-22T07:24:06.071Z,23.06
2022-08-22T07:26:41.408Z,23.21
2022-08-22T07:29:17.883Z,23.43
2022-08-22T07:31:53.474Z,23.64
2022-08-22T07:34:33.272Z,23.85
2022-08-22T07:37:06.180Z,24.01
2022-08-22T07:39:38.259Z,24.16
2022-08-22T07:42:12.653Z,24.31
2022-08-22T07:44:59.843Z,24.41
2022-08-22T07:47:39.091Z,24.51
2022-08-22T07:50:08.607Z,24.61
2022-08-22T07:52:41.580Z,24.71
2022-08-22T07:55:17.023Z,24.85
2022-08-22T07:57:48.249Z,24.90
2022-08-22T08:00:19.824Z,24.93
2022-08-22T08:02:52.695Z,25.03
2022-08-22T08:05:24.163Z,25.12
2022-08-22T08:07:55.109Z,25.23
2022-08-22T08:10:27.254Z,25.37
2022-08-22T08:13:02.772Z,25.51
2022-08-22T08:15:34.468Z,25.66
2022-08-22T08:18:05.878Z,25.70
2022-08-22T08:20:35.415Z,25.76
2022-08-22T08:23:07.700Z,25.88
2022-08-22T08:25:53.580Z,26.02
2022-08-22T08:28:33.932Z,26.13
2022-08-22T08:31:12.207Z,26.17
2022-08-22T08:33:44.410Z,26.30
2022-08-22T08:36:29.697Z,26.44
2022-08-22T08:39:11.965Z,26.55
2022-08-22T08:41:59.803Z,26.68
2022-08-22T08:44:46.057Z,26.69
2022-08-22T08:47:29.423Z,26.61
2022-08-22T08:50:14.695Z,26.49
2022-08-22T08:53:00.090Z,26.41
2022-08-22T08:55:39.847Z,26.33
2022-08-22T08:58:24.084Z,26.42
2022-08-22T09:00:57.117Z,26.50
2022-08-22T09:04:06.405Z,26.46
2022-08-22T09:07:01.347Z,26.43
2022-08-22T09:09:44.467Z,26.43
2022-08-22T09:12:36.119Z,26.53
2022-08-22T09:15:18.628Z,26.68
2022-08-22T09:18:14.023Z,26.83
2022-08-22T09:21:00.993Z,26.99
2022-08-22T09:23:59.108Z,27.03
2022-08-22T09:26:32.516Z,27.02
2022-08-22T09:29:13.536Z,26.98
2022-08-22T09:31:52.618Z,27.03
2022-08-22T09:34:28.929Z,27.04
2022-08-22T09:37:18.969Z,26.96
2022-08-22T09:39:57.364Z,26.90
2022-08-22T09:42:31.564Z,27.03
2022-08-22T09:45:38.027Z,27.29
2022-08-22T09:48:21.116Z,27.56
2022-08-22T09:51:08.455Z,27.72
2022-08-22T09:54:21.953Z,27.85
2022-08-22T09:57:15.860Z,27.98
2022-08-22T09:59:58.096Z,28.02
2022-08-22T10:02:33.949Z,28.03
2022-08-22T10:05:11.648Z,28.02
2022-08-22T10:08:07.469Z,27.94
2022-08-22T10:10:53.979Z,27.71
2022-08-22T10:13:34.091Z,27.51
2022-08-22T10:16:14.880Z,27.39
2022-08-22T10:18:52.782Z,27.28
2022-08-22T10:21:30.811Z,27.21
2022-08-22T10:24:02.976Z,27.14
2022-08-22T10:26:44.873Z,27.07
2022-08-22T10:29:36.095Z,27.01
2022-08-22T10:32:14.761Z,26.95
2022-08-22T10:34:48.535Z,26.90
2022-08-22T10:37:25.033Z,26.84
2022-08-22T10:39:59.732Z,26.78
2022-08-22T10:42:31.255Z,26.72
2022-08-22T10:45:36.386Z,26.68
2022-08-22T10:48:25.634Z,26.66
2022-08-22T10:51:01.648Z,26.64
2022-08-22T10:53:37.060Z,26.64
2022-08-22T10:56:10.535Z,26.66
2022-08-22T10:58:41.879Z,26.70
2022-08-22T11:01:37.101Z,26.78
2022-08-22T11:04:12.196Z,26.86
2022-08-22T11:06:45.844Z,26.89
2022-08-22T11:09:20.688Z,26.85
2022-08-22T11:11:56.047Z,26.85
2022-08-22T11:14:50.431Z,26.91
2022-08-22T11:17:40.635Z,26.93
2022-08-22T11:20:19.415Z,26.92
2022-08-22T11:23:00.143Z,26.93
2022-08-22T11:25:40.821Z,26.98
2022-08-22T11:28:40.697Z,27.06
2022-08-22T11:31:19.311Z,27.17
2022-08-22T11:34:01.851Z,27.28
2022-08-22T11:36:36.369Z,27.34
2022-08-22T11:39:17.935Z,27.38
2022-08-22T11:41:54.546Z,27.47
2022-08-22T11:44:27.383Z,27.56
2022-08-22T11:46:56.992Z,27.68
2022-08-22T11:49:47.497Z,27.77
2022-08-22T11:53:07.660Z,27.83
2022-08-22T11:55:38.661Z,27.84
2022-08-22T11:58:29.107Z,27.84
2022-08-22T12:01:01.451Z,27.82
2022-08-22T12:03:43.638Z,27.82
2022-08-22T12:06:34.717Z,27.80
2022-08-22T12:09:15.576Z,27.80
2022-08-22T12:11:57.827Z,27.81
2022-08-22T12:14:31.037Z,27.83
2022-08-22T12:17:51.087Z,27.85
2022-08-22T12:20:24.235Z,27.83
2022-08-22T12:23:18.085Z,27.81
2022-08-22T12:25:58.911Z,27.78
2022-08-22T12:28:35.010Z,27.77
2022-08-22T12:31:12.655Z,27.78
2022-08-22T12:33:53.352Z,27.75
2022-08-22T12:36:50.646Z,27.68
2022-08-22T12:39:41.106Z,27.61
2022-08-22T12:42:24.621Z,27.53
2022-08-22T12:45:07.777Z,27.47
2022-08-22T12:47:42.263Z,27.45
2022-08-22T12:50:21.538Z,27.42
2022-08-22T12:53:11.961Z,27.41
2022-08-22T12:56:04.685Z,27.42
2022-08-22T12:58:51.396Z,27.45
2022-08-22T13:01:23.309Z,27.49
2022-08-22T13:04:05.139Z,27.49
2022-08-22T13:07:06.019Z,27.42
2022-08-22T13:09:38.020Z,27.30
2022-08-22T13:12:19.879Z,27.22
2022-08-22T13:14:54.351Z,27.24
2022-08-22T13:17:25.365Z,27.25
2022-08-22T13:20:04.488Z,27.26
2022-08-22T13:22:36.198Z,27.24
2022-08-22T13:25:15.574Z,27.30
2022-08-22T13:27:55.494Z,27.34
2022-08-22T13:30:31.303Z,27.39
2022-08-22T13:33:08.735Z,27.44
2022-08-22T13:35:44.486Z,27.44
2022-08-22T13:38:26.338Z,27.50
2022-08-22T13:41:00.799Z,27.59
2022-08-22T13:43:33.663Z,27.56
2022-08-22T13:46:04.995Z,27.48
2022-08-22T13:48:49.655Z,27.50
2022-08-22T13:51:25.235Z,27.54
2022-08-22T13:54:01.043Z,27.56
2022-08-22T13:56:39.016Z,27.60
2022-08-22T13:59:47.150Z,27.64
2022-08-22T14:02:15.228Z,27.68
2022-08-22T14:04:48.558Z,27.74
2022-08-22T14:07:31.911Z,27.81
2022-08-22T14:10:05.028Z,27.94
2022-08-22T14:12:50.313Z,28.10
2022-08-22T14:15:23.640Z,28.25
2022-08-22T14:18:00.108Z,28.35
2022-08-22T14:20:33.702Z,28.42
2022-08-22T14:23:06.453Z,28.38
2022-08-22T14:25:38.153Z,28.25
2022-08-22T14:28:11.068Z,28.12
2022-08-22T14:30:54.636Z,28.00
2022-08-22T14:33:32.656Z,27.83
2022-08-22T14:36:11.270Z,27.71
2022-08-22T14:38:46.535Z,27.68
2022-08-22T14:41:22.418Z,27.70
2022-08-22T14:43:56.458Z,27.72
2022-08-22T14:46:26.400Z,27.74
2022-08-22T14:49:29.482Z,27.75
2022-08-22T14:52:07.469Z,27.76
2022-08-22T14:54:39.267Z,27.75
2022-08-22T14:57:20.070Z,27.69
2022-08-22T14:59:51.612Z,27.62
2022-08-22T15:02:26.465Z,27.59
2022-08-22T15:04:56.854Z,27.57
2022-08-22T15:07:28.304Z,27.57
2022-08-22T15:10:01.075Z,27.54
2022-08-22T15:12:34.136Z,27.52
2022-08-22T15:15:06.587Z,27.50
2022-08-22T15:17:44.343Z,27.45
2022-08-22T15:20:27.808Z,27.41
2022-08-22T15:23:00.930Z,27.39
2022-08-22T15:25:33.573Z,27.38
2022-08-22T15:28:06.391Z,27.36
2022-08-22T15:30:44.405Z,27.32
2022-08-22T15:33:17.329Z,27.26
2022-08-22T15:35:49.587Z,27.18
2022-08-22T15:38:30.157Z,27.09
2022-08-22T15:41:38.570Z,27.06
2022-08-22T15:44:15.121Z,27.00
2022-08-22T15:47:03.251Z,26.92
2022-08-22T15:49:35.561Z,26.86
2022-08-22T15:52:14.661Z,26.83
2022-08-22T15:55:23.049Z,26.78
2022-08-22T15:58:05.127Z,26.70
2022-08-22T16:00:43.490Z,26.66
2022-08-22T16:03:24.243Z,26.64
2022-08-22T16:05:55.880Z,26.59
2022-08-22T16:08:28.031Z,26.54
2022-08-22T16:11:33.017Z,26.52
2022-08-22T16:14:23.238Z,26.49
2022-08-22T16:17:03.543Z,26.47
2022-08-22T16:19:34.755Z,26.44
2022-08-22T16:22:12.074Z,26.41
2022-08-22T16:25:02.577Z,26.36
2022-08-22T16:27:31.268Z,26.32
2022-08-22T16:30:08.656Z,26.32
2022-08-22T16:32:37.252Z,26.30
2022-08-22T16:35:06.570Z,26.29
2022-08-22T16:37:46.728Z,26.27
2022-08-22T16:40:21.279Z,26.26
2022-08-22T16:42:53.204Z,26.25
2022-08-22T16:45:32.377Z,26.25
2022-08-22T16:48:15.840Z,26.23
2022-08-22T16:50:44.787Z,26.21
2022-08-22T16:53:51.723Z,26.19
2022-08-22T16:56:26.732Z,26.18
2022-08-22T16:59:23.027Z,26.17
2022-08-22T17:02:17.976Z,26.15
2022-08-22T17:04:49.152Z,26.11
2022-08-22T17:07:27.410Z,26.06
2022-08-22T17:10:12.429Z,26.03
2022-08-22T17:12:49.234Z,25.97
2022-08-22T17:15:31.604Z,25.90
2022-08-22T17:18:13.810Z,25.84
2022-08-22T17:20:47.162Z,25.79
2022-08-22T17:23:25.116Z,25.74
2022-08-22T17:26:01.349Z,25.69
2022-08-22T17:28:37.610Z,25.65
2022-08-22T17:31:12.890Z,25.59
2022-08-22T17:34:07.936Z,25.53
2022-08-22T17:36:50.620Z,25.49
2022-08-22T17:39:30.081Z,25.46
2022-08-22T17:42:08.656Z,25.41
2022-08-22T17:44:44.700Z,25.39
2022-08-22T17:47:18.069Z,25.35
2022-08-22T17:49:54.390Z,25.31
2022-08-22T17:52:25.186Z,25.27
2022-08-22T17:54:57.989Z,25.23
2022-08-22T17:57:31.087Z,25.17
2022-08-22T18:00:01.221Z,25.10
2022-08-22T18:02:34.046Z,25.01
2022-08-22T18:05:07.592Z,24.92
2022-08-22T18:07:46.605Z,24.85
2022-08-22T18:10:22.223Z,24.79
2022-08-22T18:12:57.874Z,24.73
2022-08-22T18:15:30.126Z,24.67
2022-08-22T18:18:04.037Z,24.61
2022-08-22T18:20:38.196Z,24.58
2022-08-22T18:23:35.471Z,24.56
2022-08-22T18:26:20.117Z,24.53
2022-08-22T18:28:54.797Z,24.50
2022-08-22T18:31:38.450Z,24.47
2022-08-22T18:34:16.049Z,24.43
2022-08-22T18:36:53.130Z,24.40
2022-08-22T18:39:29.216Z,24.36
2022-08-22T18:42:03.510Z,24.30
2022-08-22T18:44:34.421Z,24.26
2022-08-22T18:47:12.762Z,24.24
2022-08-22T18:49:45.531Z,24.20
2022-08-22T18:52:18.434Z,24.18
2022-08-22T18:55:26.626Z,24.15
2022-08-22T18:58:08.641Z,24.11
2022-08-22T19:00:50.588Z,24.07
2022-08-22T19:03:43.413Z,24.04
2022-08-22T19:06:37.881Z,24.01
2022-08-22T19:09:27.528Z,23.98
2022-08-22T19:12:04.888Z,23.95
2022-08-22T19:15:05.341Z,23.93
2022-08-22T19:17:55.833Z,23.90
2022-08-22T19:20:46.190Z,23.87
2022-08-22T19:23:45.056Z,23.83
2022-08-22T19:26:27.259Z,23.80
2022-08-22T19:28:58.195Z,23.77
2022-08-22T19:31:45.034Z,23.75
2022-08-22T19:34:18.149Z,23.73
2022-08-22T19:36:46.833Z,23.69
2022-08-22T19:39:51.073Z,23.65
2022-08-22T19:42:31.789Z,23.63
2022-08-22T19:45:08.338Z,23.61
2022-08-22T19:47:39.082Z,23.57
2022-08-22T19:50:13.245Z,23.52
2022-08-22T19:52:57.089Z,23.49
2022-08-22T19:55:33.054Z,23.45
2022-08-22T19:58:08.913Z,23.41
2022-08-22T20:00:52.847Z,23.38
2022-08-22T20:03:32.046Z,23.33
2022-08-22T20:06:06.992Z,23.29
2022-08-22T20:08:53.733Z,23.24
2022-08-22T20:11:37.131Z,23.22
2022-08-22T20:14:20.083Z,23.18
2022-08-22T20:17:07.375Z,23.14
2022-08-22T20:22:44.296Z,23.06
2022-08-22T20:25:42.757Z,23.02
2022-08-22T20:28:10.972Z,22.97
2022-08-22T20:30:42.911Z,22.92
2022-08-22T20:33:17.110Z,22.87
2022-08-22T20:35:51.934Z,22.83
2022-08-22T20:38:28.595Z,22.79
2022-08-22T20:41:01.983Z,22.76
2022-08-22T20:43:35.499Z,22.73
2022-08-22T20:46:15.151Z,22.69
2022-08-22T20:48:45.375Z,22.64
2022-08-22T20:51:16.401Z,22.60
2022-08-22T20:53:51.174Z,22.58
2022-08-22T20:56:32.100Z,22.55
2022-08-22T20:59:02.951Z,22.50
2022-08-22T21:01:32.147Z,22.48
2022-08-22T21:04:00.920Z,22.45
2022-08-22T21:06:33.761Z,22.41
2022-08-22T21:09:30.928Z,22.39
2022-08-22T21:11:59.759Z,22.36
2022-08-22T21:14:33.964Z,22.33
2022-08-22T21:17:18.284Z,22.31
2022-08-22T21:19:47.144Z,22.29
2022-08-22T21:22:17.835Z,22.27
2022-08-22T21:25:01.065Z,22.24
2022-08-22T21:27:36.230Z,22.20
2022-08-22T21:30:12.421Z,22.16
2022-08-22T21:32:55.062Z,22.12
2022-08-22T21:35:33.226Z,22.07
2022-08-22T21:38:03.622Z,22.03
2022-08-22T21:40:34.524Z,22.00
2022-08-22T21:43:07.405Z,21.97
2022-08-22T21:45:43.249Z,21.96
2022-08-22T21:48:43.533Z,21.95
2022-08-22T21:51:29.719Z,21.93
2022-08-22T21:54:27.804Z,21.92
2022-08-22T21:56:58.381Z,21.89
2022-08-22T21:59:50.714Z,21.86
2022-08-22T22:02:42.376Z,21.85
2022-08-22T22:05:18.045Z,21.84
2022-08-22T22:07:49.739Z,21.84
2022-08-22T22:10:23.287Z,21.84
2022-08-22T22:12:58.730Z,21.83
2022-08-22T22:15:33.505Z,21.81
2022-08-22T22:18:06.077Z,21.79
2022-08-22T22:20:34.661Z,21.77
2022-08-22T22:23:03.630Z,21.75
2022-08-22T22:25:39.801Z,21.74
2022-08-22T22:28:14.034Z,21.72
2022-08-22T22:30:43.743Z,21.70
2022-08-22T22:33:13.148Z,21.71
2022-08-22T22:35:41.988Z,21.69
2022-08-22T22:38:11.084Z,21.67
2022-08-22T22:40:40.866Z,21.64
2022-08-22T22:43:11.303Z,21.61
2022-08-22T22:45:41.593Z,21.59
2022-08-22T22:48:10.132Z,21.57
2022-08-22T22:50:41.488Z,21.55
2022-08-22T22:53:11.449Z,21.53
2022-08-22T22:56:00.077Z,21.52
2022-08-22T22:58:29.955Z,21.50
2022-08-22T23:00:59.154Z,21.48
2022-08-22T23:03:28.474Z,21.46
2022-08-22T23:05:57.703Z,21.43
2022-08-22T23:08:26.501Z,21.39
2022-08-22T23:10:56.034Z,21.36
2022-08-22T23:13:24.812Z,21.35
2022-08-22T23:15:53.596Z,21.35
2022-08-22T23:18:30.476Z,21.34
2022-08-22T23:21:10.669Z,21.30
2022-08-22T23:23:39.258Z,21.28
2022-08-22T23:26:08.209Z,21.25
2022-08-22T23:28:37.198Z,21.22
2022-08-22T23:31:17.278Z,21.20
2022-08-22T23:33:47.114Z,21.18
2022-08-22T23:36:19.975Z,21.14
2022-08-22T23:38:50.751Z,21.10
2022-08-22T23:41:23.691Z,21.07
2022-08-22T23:43:56.247Z,21.05
2022-08-22T23:46:28.002Z,21.02
2022-08-22T23:49:05.987Z,21.01
2022-08-22T23:51:37.705Z,21.00
2022-08-22T23:54:09.956Z,20.99
2022-08-22T23:56:42.374Z,20.96
2022-08-22T23:59:13.911Z,20.96
